Time;durP1;ratioP1;P1;durP2;ratioP2;P2;SDS_P1;SDS_P2;PMS_P1;PMS_P2;Temp;Humidity;BMP_temperature;BMP_pressure;BME280_temperature;BME280_humidity;BME280_pressure;Samples;Min_cycle;Max_cycle;Signal;HPM_P1;HPM_P2
2022/08/19 00:01:43;;;;;;;11.10;10.20;;;;;;;-141.48;100.00;69781.59;5245212;28;20032;-66
2022/08/19 00:04:15;;;;;;;15.07;11.90;;;;;;;-141.48;100.00;69781.59;5227196;28;20032;-67
2022/08/19 00:06:47;;;;;;;13.23;12.23;;;;;;;-141.48;100.00;69781.59;5245133;28;20036;-67
2022/08/19 00:09:19;;;;;;;14.35;13.05;;;;;;;-141.48;100.00;69781.59;5227520;28;20311;-66
2022/08/19 00:11:51;;;;;;;14.80;13.65;;;;;;;-141.48;100.00;69781.59;5232685;28;20037;-67
2022/08/19 00:14:24;;;;;;;17.33;14.88;;;;;;;-141.48;100.00;69781.59;5223938;28;20020;-69
2022/08/19 00:16:54;;;;;;;16.13;14.75;;;;;;;-141.48;100.00;69781.59;5224365;28;20539;-66
2022/08/19 00:19:25;;;;;;;19.58;15.80;;;;;;;-141.48;100.00;69781.59;5224416;28;20025;-65
2022/08/19 00:21:56;;;;;;;15.80;14.18;;;;;;;-141.48;100.00;69781.59;5224798;28;20028;-66
2022/08/19 00:24:27;;;;;;;18.13;16.67;;;;;;;-141.48;100.00;69781.59;5235600;28;20029;-66
2022/08/19 00:26:58;;;;;;;16.48;15.27;;;;;;;-141.48;100.00;69781.59;5245310;28;20020;-65
2022/08/19 00:29:28;;;;;;;17.67;16.08;;;;;;;-141.48;100.00;69781.59;5245587;28;20145;-66
2022/08/19 00:31:59;;;;;;;18.13;16.52;;;;;;;-141.48;100.00;69781.59;5226841;28;20135;-66
2022/08/19 00:34:30;;;;;;;18.17;16.65;;;;;;;-141.48;100.00;69781.59;5226112;28;20029;-65
2022/08/19 00:37:00;;;;;;;18.48;17.02;;;;;;;-141.48;100.00;69781.59;5234549;28;20031;-65
2022/08/19 00:39:30;;;;;;;18.95;17.55;;;;;;;-141.48;100.00;69781.59;5206190;28;20024;-65
2022/08/19 00:42:01;;;;;;;18.27;16.90;;;;;;;-141.48;100.00;69781.59;5224226;28;20358;-65
2022/08/19 00:44:32;;;;;;;18.77;17.35;;;;;;;-141.48;100.00;69781.59;5205904;28;20028;-67
2022/08/19 00:47:03;;;;;;;21.33;18.67;;;;;;;-141.48;100.00;69781.59;5224052;28;20029;-67
2022/08/19 00:49:41;;;;;;;21.48;19.23;;;;;;;-141.48;100.00;69781.59;5226824;28;20670;-66
2022/08/19 00:52:16;;;;;;;22.40;20.30;;;;;;;-141.48;100.00;69781.59;5244853;28;20126;-69
2022/08/19 00:54:47;;;;;;;21.20;19.30;;;;;;;-141.48;100.00;69781.59;5243695;28;20029;-67
2022/08/19 00:57:26;;;;;;;22.35;20.20;;;;;;;-141.48;100.00;69781.59;5244802;28;20538;-67
2022/08/19 00:59:59;;;;;;;21.60;19.23;;;;;;;-141.48;100.00;69781.59;5244699;28;20021;-66
2022/08/19 01:02:32;;;;;;;23.40;21.30;;;;;;;-141.48;100.00;69781.59;5244900;28;20025;-67
2022/08/19 01:05:06;;;;;;;21.58;19.70;;;;;;;-141.48;100.00;69781.59;5243607;28;20108;-67
2022/08/19 01:07:40;;;;;;;20.10;18.45;;;;;;;-141.48;100.00;69781.59;5244442;28;20103;-67
2022/08/19 01:10:14;;;;;;;23.92;21.88;;;;;;;-141.48;100.00;69781.59;5248441;28;20024;-66
2022/08/19 01:12:46;;;;;;;27.50;24.98;;;;;;;-141.48;100.00;69781.59;5248275;28;20027;-66
2022/08/19 01:15:22;;;;;;;29.23;26.58;;;;;;;-141.48;100.00;69781.59;5247826;28;20054;-66
2022/08/19 01:17:54;;;;;;;28.33;25.80;;;;;;;-141.48;100.00;69781.59;5248002;28;20032;-66
2022/08/19 01:20:25;;;;;;;24.90;22.67;;;;;;;-141.48;100.00;69781.59;5248423;28;20582;-66
2022/08/19 01:22:58;;;;;;;26.98;24.50;;;;;;;-141.48;100.00;69781.59;5248238;28;20099;-66
2022/08/19 01:25:45;;;;;;;28.42;25.73;;;;;;;-141.48;100.00;69781.59;5229595;28;20568;-66
2022/08/19 01:28:23;;;;;;;29.58;27.00;;;;;;;-141.48;100.00;69781.59;5247944;28;20028;-67
2022/08/19 01:30:54;;;;;;;29.73;26.65;;;;;;;-141.48;100.00;69781.59;5248182;28;20036;-67
2022/08/19 01:33:24;;;;;;;29.67;26.67;;;;;;;-141.48;100.00;69781.59;5247315;28;20047;-66
2022/08/19 01:36:11;;;;;;;33.83;29.92;;;;;;;-141.48;100.00;69781.59;5247911;28;20025;-65
2022/08/19 01:38:43;;;;;;;33.42;29.85;;;;;;;-141.48;100.00;69781.59;5247671;28;20692;-65
2022/08/19 01:41:14;;;;;;;33.42;30.35;;;;;;;-141.48;100.00;69781.59;5229960;28;20029;-65
2022/08/19 01:43:46;;;;;;;38.63;34.15;;;;;;;-141.48;100.00;69781.59;5229109;28;20024;-64
2022/08/19 01:46:18;;;;;;;35.22;31.60;;;;;;;-141.48;100.00;69781.59;5248058;28;20086;-64
2022/08/19 01:48:48;;;;;;;40.35;36.20;;;;;;;-141.48;100.00;69781.59;5247746;28;20027;-65
2022/08/19 01:51:19;;;;;;;41.95;37.55;;;;;;;-141.48;100.00;69781.59;5247812;28;20111;-64
2022/08/19 01:53:50;;;;;;;34.97;31.42;;;;;;;-141.48;100.00;69781.59;5246857;28;20038;-64
2022/08/19 01:56:21;;;;;;;35.90;32.40;;;;;;;-141.48;100.00;69781.59;5247712;28;20040;-64
2022/08/19 01:59:01;;;;;;;40.28;34.95;;;;;;;-141.48;100.00;69781.59;5247361;28;20473;-64
2022/08/19 02:01:32;;;;;;;38.35;34.35;;;;;;;-141.48;100.00;69781.59;5247462;28;20016;-64
2022/08/19 02:04:02;;;;;;;38.40;34.55;;;;;;;-141.48;100.00;69781.59;5247095;28;20028;-64
2022/08/19 02:06:34;;;;;;;41.78;35.10;;;;;;;-141.48;100.00;69781.59;5229345;28;20078;-64
2022/08/19 02:09:06;;;;;;;39.90;35.63;;;;;;;-141.48;100.00;69781.59;5247387;28;20020;-66
2022/08/19 02:11:37;;;;;;;41.78;37.85;;;;;;;-141.48;100.00;69781.59;5247344;28;20039;-64
2022/08/19 02:14:08;;;;;;;44.58;37.95;;;;;;;-141.48;100.00;69781.59;5246442;28;20032;-63
2022/08/19 02:16:39;;;;;;;40.15;35.92;;;;;;;-141.48;100.00;69781.59;5229216;28;20365;-64
2022/08/19 02:19:10;;;;;;;41.00;35.20;;;;;;;-141.48;100.00;69781.59;5246779;28;20028;-65
2022/08/19 02:21:40;;;;;;;43.75;38.80;;;;;;;-141.48;100.00;69781.59;5246857;28;20028;-64
2022/08/19 02:24:12;;;;;;;37.88;34.10;;;;;;;-141.48;100.00;69781.59;5246463;28;20472;-64
2022/08/19 02:26:42;;;;;;;37.80;33.83;;;;;;;-141.48;100.00;69781.59;5246826;28;20099;-65
2022/08/19 02:29:13;;;;;;;40.03;36.20;;;;;;;-141.48;100.00;69781.59;5246865;28;20107;-65
2022/08/19 02:31:43;;;;;;;50.13;34.90;;;;;;;-141.48;100.00;69781.59;5246889;28;20028;-65
2022/08/19 02:34:13;;;;;;;39.35;35.45;;;;;;;-141.48;100.00;69781.59;5246334;28;20025;-65
2022/08/19 02:36:44;;;;;;;38.80;35.10;;;;;;;-141.48;100.00;69781.59;5228590;28;20033;-65
2022/08/19 02:39:14;;;;;;;36.35;32.45;;;;;;;-141.48;100.00;69781.59;5246565;28;20057;-65
2022/08/19 02:41:45;;;;;;;41.15;36.88;;;;;;;-141.48;100.00;69781.59;5246843;28;20482;-65
2022/08/19 02:44:16;;;;;;;38.80;34.65;;;;;;;-141.48;100.00;69781.59;5245936;28;20025;-65
2022/08/19 02:46:49;;;;;;;45.17;36.10;;;;;;;-141.48;100.00;69781.59;5246805;28;20024;-65
2022/08/19 02:49:20;;;;;;;39.70;33.95;;;;;;;-141.48;100.00;69781.59;5246168;28;20040;-65
2022/08/19 02:51:50;;;;;;;39.97;36.25;;;;;;;-141.48;100.00;69781.59;5246398;28;20077;-65
2022/08/19 02:54:21;;;;;;;36.83;32.85;;;;;;;-141.48;100.00;69781.59;5245803;28;20040;-66
2022/08/19 02:56:51;;;;;;;39.15;35.50;;;;;;;-141.48;100.00;69781.59;5246561;28;20081;-65
2022/08/19 02:59:22;;;;;;;36.30;32.63;;;;;;;-141.48;100.00;69781.59;5246386;28;20021;-65
2022/08/19 03:01:52;;;;;;;38.50;34.60;;;;;;;-141.48;100.00;69781.59;5246168;28;20503;-65
2022/08/19 03:04:24;;;;;;;38.65;32.45;;;;;;;-141.48;100.00;69781.59;5227550;28;20052;-65
2022/08/19 03:06:54;;;;;;;39.53;34.15;;;;;;;-141.48;100.00;69781.59;5227874;28;20031;-65
2022/08/19 03:09:25;;;;;;;36.38;32.30;;;;;;;-141.48;100.00;69781.59;5227878;28;20016;-65
2022/08/19 03:11:55;;;;;;;39.78;35.47;;;;;;;-141.48;100.00;69781.59;5246064;28;20020;-65
2022/08/19 03:14:26;;;;;;;37.67;32.63;;;;;;;-141.48;100.00;69781.59;5245357;28;20500;-66
2022/08/19 03:16:57;;;;;;;38.20;33.70;;;;;;;-141.48;100.00;69781.59;5245947;28;20021;-66
2022/08/19 03:19:27;;;;;;;39.47;35.35;;;;;;;-141.48;100.00;69781.59;5228163;28;20020;-66
2022/08/19 03:21:58;;;;;;;37.22;32.22;;;;;;;-141.48;100.00;69781.59;5246019;28;20020;-65
2022/08/19 03:24:28;;;;;;;41.13;35.80;;;;;;;-141.48;100.00;69781.59;5245006;28;20024;-66
2022/08/19 03:26:59;;;;;;;39.20;35.28;;;;;;;-141.48;100.00;69781.59;5245622;28;20025;-66
2022/08/19 03:29:31;;;;;;;44.15;38.55;;;;;;;-141.48;100.00;69781.59;5245703;28;20749;-65
2022/08/19 03:32:04;;;;;;;41.05;36.72;;;;;;;-141.48;100.00;69781.59;5227451;28;20016;-65
2022/08/19 03:34:37;;;;;;;42.50;38.35;;;;;;;-141.48;100.00;69781.59;5244833;28;20028;-65
2022/08/19 03:37:12;;;;;;;45.50;40.85;;;;;;;-141.48;100.00;69781.59;5245626;28;20154;-65
2022/08/19 03:39:42;;;;;;;42.05;37.60;;;;;;;-141.48;100.00;69781.59;5245688;28;20028;-66
2022/08/19 03:42:12;;;;;;;47.30;38.63;;;;;;;-141.48;100.00;69781.59;5245509;28;20028;-66
2022/08/19 03:44:44;;;;;;;52.10;39.67;;;;;;;-141.48;100.00;69781.59;5244910;28;20481;-65
2022/08/19 03:47:16;;;;;;;45.63;38.42;;;;;;;-141.48;100.00;69781.59;5227443;28;20088;-66
2022/08/19 03:49:46;;;;;;;47.05;41.67;;;;;;;-141.48;100.00;69781.59;5227115;28;20016;-65
2022/08/19 03:52:17;;;;;;;44.90;39.35;;;;;;;-141.48;100.00;69781.59;5244697;28;20444;-66
2022/08/19 03:54:47;;;;;;;47.25;39.25;;;;;;;-141.48;100.00;69781.59;5242853;28;20032;-65
2022/08/19 03:57:18;;;;;;;44.70;40.03;;;;;;;-141.48;100.00;69781.59;5227438;28;20111;-65
2022/08/19 03:59:48;;;;;;;51.38;40.15;;;;;;;-141.48;100.00;69781.59;5245340;28;20016;-65
2022/08/19 04:02:19;;;;;;;40.38;35.90;;;;;;;-141.48;100.00;69781.59;5244942;28;20020;-65
2022/08/19 04:04:54;;;;;;;50.63;38.85;;;;;;;-141.48;100.00;69781.59;5244411;28;20024;-65
2022/08/19 04:07:24;;;;;;;45.50;39.10;;;;;;;-141.48;100.00;69781.59;5244804;28;20234;-65
2022/08/19 04:09:55;;;;;;;46.65;38.63;;;;;;;-141.48;100.00;69781.59;5244725;28;20020;-65
2022/08/19 04:12:25;;;;;;;40.88;34.80;;;;;;;-141.48;100.00;69781.59;5244847;28;20024;-65
2022/08/19 04:14:55;;;;;;;45.95;39.85;;;;;;;-141.48;100.00;69781.59;5244396;28;20391;-65
2022/08/19 04:17:26;;;;;;;40.00;35.70;;;;;;;-141.48;100.00;69781.59;5244805;28;20021;-65
2022/08/19 04:19:56;;;;;;;43.20;37.90;;;;;;;-141.48;100.00;69781.59;5226771;28;20028;-65
2022/08/19 04:22:27;;;;;;;45.42;36.05;;;;;;;-141.48;100.00;69781.59;5244925;28;20419;-65
2022/08/19 04:24:57;;;;;;;40.05;35.03;;;;;;;-141.48;100.00;69781.59;5243794;28;20047;-65
2022/08/19 04:27:28;;;;;;;42.97;37.15;;;;;;;-141.48;100.00;69781.59;5244606;28;20035;-65
2022/08/19 04:29:58;;;;;;;42.85;37.67;;;;;;;-141.48;100.00;69781.59;5244949;28;20104;-65
2022/08/19 04:32:30;;;;;;;44.28;39.28;;;;;;;-141.48;100.00;69781.59;5216522;28;20108;-65
2022/08/19 04:35:01;;;;;;;38.17;34.35;;;;;;;-141.48;100.00;69781.59;5205368;28;20037;-65
2022/08/19 04:37:33;;;;;;;47.33;36.00;;;;;;;-141.48;100.00;69781.59;5223800;28;20032;-65
2022/08/19 04:43:05;;;;;;;43.50;37.53;;;;;;;-141.48;100.00;69781.59;5169996;28;20522;-65
2022/08/19 04:45:36;;;;;;;41.72;34.08;;;;;;;-141.48;100.00;69781.59;5227904;28;20021;-65
2022/08/19 04:48:06;;;;;;;42.88;38.40;;;;;;;-141.48;100.00;69781.59;5210356;28;20083;-66
2022/08/19 04:50:41;;;;;;;47.50;39.20;;;;;;;-141.48;100.00;69781.59;5228312;28;20021;-66
2022/08/19 04:53:12;;;;;;;42.97;38.42;;;;;;;-141.48;100.00;69781.59;5227860;28;20104;-66
2022/08/19 04:55:42;;;;;;;59.35;39.28;;;;;;;-141.48;100.00;69781.59;5227096;28;20108;-66
2022/08/19 04:58:13;;;;;;;51.38;42.13;;;;;;;-141.48;100.00;69781.59;5228007;28;20031;-65
2022/08/19 05:00:43;;;;;;;45.78;41.00;;;;;;;-141.48;100.00;69781.59;5227886;28;20021;-66
2022/08/19 05:03:16;;;;;;;50.28;39.53;;;;;;;-141.48;100.00;69781.59;5227396;28;20025;-66
2022/08/19 05:05:48;;;;;;;40.80;36.47;;;;;;;-141.48;100.00;69781.59;5227178;28;20048;-66
2022/08/19 05:08:21;;;;;;;44.53;37.55;;;;;;;-141.48;100.00;69781.59;5209959;28;20021;-65
2022/08/19 05:10:52;;;;;;;49.85;36.40;;;;;;;-141.48;100.00;69781.59;5227785;28;20028;-66
2022/08/19 05:13:23;;;;;;;39.88;34.97;;;;;;;-141.48;100.00;69781.59;5226960;28;20550;-66
2022/08/19 05:15:56;;;;;;;38.17;32.15;;;;;;;-141.48;100.00;69781.59;5227575;28;20032;-66
2022/08/19 05:24:08;;;;;;;39.45;34.13;;;;;;;-141.48;100.00;69781.59;5227001;28;20032;-66
2022/08/19 05:26:41;;;;;;;42.40;31.98;;;;;;;-141.48;100.00;69781.59;5227798;28;20505;-66
2022/08/19 05:29:13;;;;;;;34.60;30.90;;;;;;;-141.48;100.00;69781.59;5210316;28;20091;-65
2022/08/19 05:31:45;;;;;;;36.28;32.55;;;;;;;-141.48;100.00;69781.59;5227669;28;20078;-66
2022/08/19 05:34:24;;;;;;;41.22;34.20;;;;;;;-141.48;100.00;69781.59;5227332;28;20033;-65
2022/08/19 05:36:57;;;;;;;34.25;29.20;;;;;;;-141.48;100.00;69781.59;5227509;28;20021;-66
2022/08/19 05:39:30;;;;;;;41.63;32.45;;;;;;;-141.48;100.00;69781.59;5209461;28;20124;-65
2022/08/19 05:42:05;;;;;;;49.15;34.50;;;;;;;-141.48;100.00;69781.59;5232447;28;20484;-66
2022/08/19 05:44:39;;;;;;;37.45;31.08;;;;;;;-141.48;100.00;69781.59;5228272;28;20419;-66
2022/08/19 05:47:11;;;;;;;41.13;32.83;;;;;;;-141.48;100.00;69781.59;5227323;28;20025;-66
2022/08/19 05:49:42;;;;;;;33.50;30.08;;;;;;;-141.48;100.00;69781.59;5227214;28;20075;-66
2022/08/19 05:52:18;;;;;;;31.92;28.58;;;;;;;-141.48;100.00;69781.59;5226666;28;20029;-66
2022/08/19 05:54:50;;;;;;;34.50;30.70;;;;;;;-141.48;100.00;69781.59;5229653;28;20275;-66
2022/08/19 05:57:21;;;;;;;38.78;29.30;;;;;;;-141.48;100.00;69781.59;5243390;28;20032;-66
2022/08/19 05:59:53;;;;;;;29.17;25.95;;;;;;;-141.48;100.00;69781.59;5224112;28;20021;-65
2022/08/19 06:02:28;;;;;;;31.50;28.23;;;;;;;-141.48;100.00;69781.59;5226545;28;20099;-66
2022/08/19 06:04:58;;;;;;;34.20;26.90;;;;;;;-141.48;100.00;69781.59;5225890;28;20381;-66
2022/08/19 06:07:29;;;;;;;27.80;24.98;;;;;;;-141.48;100.00;69781.59;5226433;28;20050;-65
2022/08/19 06:09:59;;;;;;;35.67;23.65;;;;;;;-141.48;100.00;69781.59;5209010;28;20054;-66
2022/08/19 06:12:34;;;;;;;33.63;27.30;;;;;;;-141.48;100.00;69781.59;5226659;28;20480;-65
2022/08/19 06:15:10;;;;;;;27.58;25.00;;;;;;;-141.48;100.00;69781.59;5207647;28;20405;-65
2022/08/19 06:17:44;;;;;;;25.15;22.10;;;;;;;-141.48;100.00;69781.59;5225933;28;20025;-66
2022/08/19 06:20:16;;;;;;;28.33;25.60;;;;;;;-141.48;100.00;69781.59;5226476;28;20147;-66
2022/08/19 06:22:51;;;;;;;25.33;22.85;;;;;;;-141.48;100.00;69781.59;5208188;28;20082;-66
2022/08/19 06:25:21;;;;;;;25.02;21.33;;;;;;;-141.48;100.00;69781.59;5226292;28;20366;-65
2022/08/19 06:27:52;;;;;;;25.05;22.08;;;;;;;-141.48;100.00;69781.59;5225972;28;20062;-67
2022/08/19 06:30:23;;;;;;;21.98;19.48;;;;;;;-141.48;100.00;69781.59;5223054;28;20027;-67
2022/08/19 06:32:53;;;;;;;25.05;19.13;;;;;;;-141.48;100.00;69781.59;5225445;28;20451;-66
2022/08/19 06:35:25;;;;;;;22.75;20.60;;;;;;;-141.48;100.00;69781.59;5225834;28;20032;-66
2022/08/19 06:37:55;;;;;;;21.80;16.77;;;;;;;-141.48;100.00;69781.59;5226353;28;20500;-67
2022/08/19 06:40:27;;;;;;;20.77;18.23;;;;;;;-141.48;100.00;69781.59;5221227;28;20024;-67
2022/08/19 06:42:59;;;;;;;30.23;20.35;;;;;;;-141.48;100.00;69781.59;5225567;28;20100;-66
2022/08/19 06:45:30;;;;;;;21.05;17.20;;;;;;;-141.48;100.00;69781.59;5224761;28;20028;-66
2022/08/19 06:48:00;;;;;;;25.25;19.35;;;;;;;-141.48;100.00;69781.59;5225745;28;20040;-66
2022/08/19 06:50:31;;;;;;;23.33;15.40;;;;;;;-141.48;100.00;69781.59;5225701;28;20104;-65
2022/08/19 06:53:02;;;;;;;17.60;15.90;;;;;;;-141.48;100.00;69781.59;5223838;28;20485;-65
2022/08/19 06:55:32;;;;;;;16.25;14.65;;;;;;;-141.48;100.00;69781.59;5225241;28;20410;-67
2022/08/19 06:58:04;;;;;;;13.65;12.43;;;;;;;-141.48;100.00;69781.59;5226133;28;20121;-65
2022/08/19 07:00:36;;;;;;;15.40;13.95;;;;;;;-141.48;100.00;69781.59;5225416;28;20063;-67
2022/08/19 07:03:07;;;;;;;15.13;13.93;;;;;;;-141.48;100.00;69781.59;5225536;28;20021;-67
2022/08/19 07:05:40;;;;;;;15.13;13.68;;;;;;;-141.48;100.00;69781.59;5224377;28;20028;-66
2022/08/19 07:08:10;;;;;;;21.55;13.73;;;;;;;-141.48;100.00;69781.59;5224541;28;20419;-68
2022/08/19 07:10:45;;;;;;;13.27;12.00;;;;;;;-141.48;100.00;69781.59;5224268;28;20035;-67
2022/08/19 07:13:15;;;;;;;15.32;11.40;;;;;;;-141.48;100.00;69781.59;5225182;28;20024;-66
2022/08/19 07:15:46;;;;;;;17.73;12.18;;;;;;;-141.48;100.00;69781.59;5224984;28;20186;-66
2022/08/19 07:18:20;;;;;;;20.77;15.65;;;;;;;-141.48;100.00;69781.59;5206920;28;20033;-68
2022/08/19 07:20:50;;;;;;;33.72;13.20;;;;;;;-141.48;100.00;69781.59;5207291;28;20021;-66
2022/08/19 07:23:21;;;;;;;21.38;15.13;;;;;;;-141.48;100.00;69781.59;5212146;28;20069;-66
2022/08/19 07:25:51;;;;;;;13.15;11.85;;;;;;;-141.48;100.00;69781.59;5238980;28;20021;-68
2022/08/19 07:28:22;;;;;;;17.38;14.10;;;;;;;-141.48;100.00;69781.59;5224938;28;20021;-67
2022/08/19 07:30:53;;;;;;;14.77;13.43;;;;;;;-141.48;100.00;69781.59;5224543;28;20024;-65
2022/08/19 07:33:23;;;;;;;16.73;11.73;;;;;;;-141.48;100.00;69781.59;5205714;28;20029;-66
2022/08/19 07:35:55;;;;;;;18.77;12.00;;;;;;;-141.48;100.00;69781.59;5224910;28;20393;-66
2022/08/19 07:38:25;;;;;;;14.90;11.68;;;;;;;-141.48;100.00;69781.59;5211035;28;20469;-65
2022/08/19 07:40:55;;;;;;;13.07;11.75;;;;;;;-141.48;100.00;69781.59;5245194;28;20031;-66
2022/08/19 07:43:27;;;;;;;15.63;11.50;;;;;;;-141.48;100.00;69781.59;5244757;28;20357;-66
2022/08/19 07:45:58;;;;;;;12.55;11.40;;;;;;;-141.48;100.00;69781.59;5237168;28;20024;-65
2022/08/19 07:48:28;;;;;;;12.27;11.07;;;;;;;-141.48;100.00;69781.59;5243218;28;20036;-66
2022/08/19 07:51:04;;;;;;;14.48;11.68;;;;;;;-141.48;100.00;69781.59;5225186;28;20013;-66
2022/08/19 07:53:36;;;;;;;11.30;10.30;;;;;;;-141.48;100.00;69781.59;5205263;28;20122;-66
2022/08/19 07:56:07;;;;;;;12.07;10.98;;;;;;;-141.48;100.00;69781.59;5224364;28;20595;-66
2022/08/19 07:58:40;;;;;;;16.50;12.45;;;;;;;-141.48;100.00;69781.59;5225776;28;20029;-67
2022/08/19 08:01:15;;;;;;;14.13;12.68;;;;;;;-141.48;100.00;69781.59;5244380;28;20024;-66
2022/08/19 08:09:38;;;;;;;10.75;9.75;;;;;;;-141.48;100.00;69781.59;5238670;28;20036;-66
2022/08/19 08:12:11;;;;;;;10.98;9.60;;;;;;;-141.48;100.00;69781.59;5244708;28;20044;-66
2022/08/19 08:14:54;;;;;;;11.50;10.30;;;;;;;-141.48;100.00;69781.59;5223839;28;20036;-67
2022/08/19 08:17:27;;;;;;;10.10;8.88;;;;;;;-141.48;100.00;69781.59;5223800;28;20029;-68
2022/08/19 08:19:58;;;;;;;11.23;10.30;;;;;;;-141.48;100.00;69781.59;5205833;28;20028;-66
2022/08/19 08:25:23;;;;;;;13.05;11.88;;;;;;;-141.48;100.00;69781.59;5223386;28;20102;-66
2022/08/19 08:27:56;;;;;;;12.65;11.35;;;;;;;-141.48;100.00;69781.59;5216848;28;20055;-66
2022/08/19 08:30:28;;;;;;;12.40;10.23;;;;;;;-141.48;100.00;69781.59;5236303;28;20468;-66
2022/08/19 08:32:59;;;;;;;11.80;9.32;;;;;;;-141.48;100.00;69781.59;5223353;28;20478;-67
2022/08/19 08:35:29;;;;;;;12.40;11.20;;;;;;;-141.48;100.00;69781.59;5205237;28;20035;-67
2022/08/19 08:38:01;;;;;;;10.15;9.05;;;;;;;-141.48;100.00;69781.59;5223031;28;20029;-66
2022/08/19 08:40:48;;;;;;;11.90;10.73;;;;;;;-141.48;100.00;69781.59;5238813;28;20024;-65
2022/08/19 08:43:33;;;;;;;9.65;8.73;;;;;;;-141.48;100.00;69781.59;5222078;28;20020;-66
2022/08/19 08:46:09;;;;;;;10.65;8.55;;;;;;;-141.48;100.00;69781.59;5244523;28;20543;-67
2022/08/19 08:49:00;;;;;;;12.45;9.57;;;;;;;-141.48;100.00;69781.59;5224981;28;20108;-66
2022/08/19 08:51:46;;;;;;;9.38;7.53;;;;;;;-141.48;100.00;69781.59;5204908;28;20060;-66
2022/08/19 08:54:20;;;;;;;8.80;7.82;;;;;;;-141.48;100.00;69781.59;5223009;28;20025;-67
2022/08/19 08:56:53;;;;;;;10.25;8.30;;;;;;;-141.48;100.00;69781.59;5233580;28;20058;-67
2022/08/19 08:59:32;;;;;;;10.82;8.25;;;;;;;-141.48;100.00;69781.59;5244614;28;20025;-66
2022/08/19 09:02:02;;;;;;;10.90;9.90;;;;;;;-141.48;100.00;69781.59;5244892;28;20040;-66
2022/08/19 09:04:38;;;;;;;11.65;10.68;;;;;;;-141.48;100.00;69781.59;5242660;28;20476;-66
2022/08/19 09:07:30;;;;;;;12.27;9.77;;;;;;;-141.48;100.00;69781.59;5244292;28;20028;-66
2022/08/19 09:10:07;;;;;;;10.38;8.70;;;;;;;-141.48;100.00;69781.59;5243857;28;20435;-66
2022/08/19 09:13:15;;;;;;;10.82;9.77;;;;;;;-141.48;100.00;69781.59;5242977;28;20119;-67
2022/08/19 09:16:04;;;;;;;10.43;9.02;;;;;;;-141.48;100.00;69781.59;5243911;28;20558;-65
2022/08/19 09:18:52;;;;;;;10.85;9.43;;;;;;;-141.48;100.00;69781.59;5244590;28;20021;-66
2022/08/19 09:21:25;;;;;;;11.13;9.48;;;;;;;-141.48;100.00;69781.59;5241336;28;20021;-67
2022/08/19 09:23:57;;;;;;;11.25;10.07;;;;;;;-141.48;100.00;69781.59;5239873;28;20197;-66
2022/08/19 09:26:27;;;;;;;11.68;10.55;;;;;;;-141.48;100.00;69781.59;5244114;28;20024;-67
2022/08/19 09:28:59;;;;;;;16.40;9.43;;;;;;;-141.48;100.00;69781.59;5243994;28;20074;-67
2022/08/19 09:31:29;;;;;;;9.05;8.35;;;;;;;-141.48;100.00;69781.59;5220612;28;20104;-66
2022/08/19 09:34:01;;;;;;;9.85;8.50;;;;;;;-141.48;100.00;69781.59;5247693;28;20166;-66
2022/08/19 09:36:33;;;;;;;10.63;8.20;;;;;;;-141.48;100.00;69781.59;5230262;28;20024;-66
2022/08/19 09:39:05;;;;;;;9.10;8.20;;;;;;;-141.48;100.00;69781.59;5226200;28;20510;-65
2022/08/19 09:41:35;;;;;;;8.43;7.63;;;;;;;-141.48;100.00;69781.59;5244835;28;20028;-66
2022/08/19 09:44:06;;;;;;;9.00;8.15;;;;;;;-141.48;100.00;69781.59;5247604;28;20497;-66
2022/08/19 09:46:37;;;;;;;9.70;8.73;;;;;;;-141.48;100.00;69781.59;5230357;28;20028;-66
2022/08/19 09:49:07;;;;;;;7.90;7.15;;;;;;;-141.48;100.00;69781.59;5217047;28;20400;-66
2022/08/19 09:51:37;;;;;;;7.53;6.82;;;;;;;-141.48;100.00;69781.59;5209369;28;20083;-66
2022/08/19 09:54:08;;;;;;;8.95;7.93;;;;;;;-141.48;100.00;69781.59;5226916;28;20505;-66
2022/08/19 09:56:38;;;;;;;9.77;8.77;;;;;;;-141.48;100.00;69781.59;5226843;28;20039;-66
2022/08/19 09:59:10;;;;;;;8.75;8.02;;;;;;;-141.48;100.00;69781.59;5232570;28;20012;-65
2022/08/19 10:01:40;;;;;;;7.90;7.18;;;;;;;-141.48;100.00;69781.59;5230302;28;20032;-66
2022/08/19 10:04:10;;;;;;;6.35;5.13;;;;;;;-141.48;100.00;69781.59;5247210;28;20039;-64
2022/08/19 10:06:41;;;;;;;10.40;9.60;;;;;;;-141.48;100.00;69781.59;5229677;28;20020;-67
2022/08/19 10:09:12;;;;;;;8.20;7.45;;;;;;;-141.48;100.00;69781.59;5224909;28;20020;-67
2022/08/19 10:11:47;;;;;;;9.32;7.38;;;;;;;-141.48;100.00;69781.59;5229341;28;20063;-67
2022/08/19 10:14:22;;;;;;;7.97;7.45;;;;;;;-141.48;100.00;69781.59;5229241;28;20029;-65
2022/08/19 10:16:52;;;;;;;13.25;8.20;;;;;;;-141.48;100.00;69781.59;5230010;28;20028;-66
2022/08/19 10:19:22;;;;;;;6.93;6.10;;;;;;;-141.48;100.00;69781.59;5215701;28;20040;-65
2022/08/19 10:21:54;;;;;;;8.63;8.02;;;;;;;-141.48;100.00;69781.59;5226634;28;20021;-66
2022/08/19 10:24:25;;;;;;;9.15;8.27;;;;;;;-141.48;100.00;69781.59;5207958;28;20017;-66
2022/08/19 10:26:56;;;;;;;9.50;5.60;;;;;;;-141.48;100.00;69781.59;5226315;28;20025;-66
2022/08/19 10:29:28;;;;;;;7.20;6.72;;;;;;;-141.48;100.00;69781.59;5226377;28;20591;-66
2022/08/19 10:32:04;;;;;;;6.28;5.93;;;;;;;-141.48;100.00;69781.59;5225888;28;20025;-66
2022/08/19 10:34:37;;;;;;;6.60;6.03;;;;;;;-141.48;100.00;69781.59;5224810;28;20029;-64
2022/08/19 10:37:07;;;;;;;7.60;6.32;;;;;;;-141.48;100.00;69781.59;5226844;28;20450;-66
2022/08/19 10:39:38;;;;;;;6.38;5.88;;;;;;;-141.48;100.00;69781.59;5226372;28;20111;-67
2022/08/19 10:42:10;;;;;;;10.73;7.97;;;;;;;-141.48;100.00;69781.59;5238479;28;20557;-67
2022/08/19 10:44:41;;;;;;;7.93;7.22;;;;;;;-141.48;100.00;69781.59;5245896;28;20028;-66
2022/08/19 10:47:12;;;;;;;7.40;6.70;;;;;;;-141.48;100.00;69781.59;5228839;28;20016;-65
2022/08/19 10:52:33;;;;;;;8.75;6.88;;;;;;;-141.48;100.00;69781.59;5246988;28;20074;-65
2022/08/19 10:57:55;;;;;;;7.63;7.03;;;;;;;-141.48;100.00;69781.59;5247553;28;20119;-66
2022/08/19 11:00:25;;;;;;;8.40;7.72;;;;;;;-141.48;100.00;69781.59;5246509;28;20103;-66
2022/08/19 11:02:56;;;;;;;10.27;6.65;;;;;;;-141.48;100.00;69781.59;5228669;28;20021;-65
2022/08/19 11:05:27;;;;;;;5.70;5.35;;;;;;;-141.48;100.00;69781.59;5246443;28;20435;-65
2022/08/19 11:07:57;;;;;;;7.50;6.88;;;;;;;-141.48;100.00;69781.59;5247078;28;20028;-66
2022/08/19 11:10:28;;;;;;;6.88;6.07;;;;;;;-141.48;100.00;69781.59;5246814;28;20499;-65
2022/08/19 11:13:00;;;;;;;8.35;7.45;;;;;;;-141.48;100.00;69781.59;5245552;28;20029;-64
2022/08/19 11:15:32;;;;;;;9.38;5.97;;;;;;;-141.48;100.00;69781.59;5227085;28;20025;-66
2022/08/19 11:18:02;;;;;;;7.05;5.38;;;;;;;-141.48;100.00;69781.59;5227766;28;20443;-66
2022/08/19 11:20:33;;;;;;;8.15;7.22;;;;;;;-141.48;100.00;69781.59;5245700;28;20021;-65
2022/08/19 11:23:04;;;;;;;7.55;6.90;;;;;;;-141.48;100.00;69781.59;5245179;28;20032;-66
2022/08/19 11:25:35;;;;;;;8.15;7.38;;;;;;;-141.48;100.00;69781.59;5244461;28;20028;-65
2022/08/19 11:28:05;;;;;;;11.10;8.05;;;;;;;-141.48;100.00;69781.59;5243345;28;20428;-65
2022/08/19 11:30:37;;;;;;;12.45;7.15;;;;;;;-141.48;100.00;69781.59;5245000;28;20024;-64
2022/08/19 11:33:10;;;;;;;9.73;8.75;;;;;;;-141.48;100.00;69781.59;5225802;28;20503;-66
2022/08/19 11:35:41;;;;;;;14.18;8.25;;;;;;;-141.48;100.00;69781.59;5244631;28;20103;-67
2022/08/19 11:38:11;;;;;;;8.07;7.22;;;;;;;-141.48;100.00;69781.59;5228130;28;20080;-66
2022/08/19 11:40:42;;;;;;;6.40;5.97;;;;;;;-141.48;100.00;69781.59;5245238;28;20476;-64
2022/08/19 11:43:12;;;;;;;8.50;7.68;;;;;;;-141.48;100.00;69781.59;5245868;28;20028;-66